UGKO/KIU METAR and TAF weather

Enter ICAO airport designator
Station Type Date Time Source
UGKO METAR 2021/03/02 17:00 UTC NOAA

UGKO 021700Z 24008KT 9999 SCT038 05/02 Q1027 NOSIG


Station Type Date Time Source
UGKO Decoded METAR 2021/03/02 17:00 UTC NOAA

Station name not available
Mar 02, 2021 - 12:00 PM EST / 2021.03.02 1700 UTC
Wind: from the WSW (240 degrees) at 9 MPH (8 KT):0
Visibility: greater than 7 mile(s):0
Sky conditions: partly cloudy
Temperature: 41 F (5 C)
Dew Point: 35 F (2 C)
Relative Humidity: 80%
Pressure (altimeter): 30.33 in. Hg (1027 hPa)
ob: UGKO 021700Z 24008KT 9999 SCT038 05/02 Q1027 NOSIG
cycle: 17

Station Type Date Time Source
UGKO TAF 2021/03/02 18:07 UTC NOAA

TAF UGKO 021700Z 0218/0318 25010KT 9999 SCT040 BKN080 TX08/0309Z TNM02/0303Z
TEMPO 0218/0302 CAVOK PROB40
TEMPO 0300/0305 0500 FZFG VV002
BECMG 0308/0311 SCT026 OVC050
TEMPO 0309/0318 27016G27KT 3000 SHRA BKN015CB

Example: see airport list